createdAt,value
2023-01-18T00:02:58.657Z,14.43
2023-01-18T00:06:02.381Z,16.88
2023-01-18T00:09:04.646Z,16.88
2023-01-18T00:12:06.958Z,15.82
2023-01-18T00:15:09.703Z,19.47
2023-01-18T00:18:12.520Z,22.35
2023-01-18T00:21:14.511Z,15.63
2023-01-18T00:24:16.552Z,14.85
2023-01-18T00:27:18.621Z,17.38
2023-01-18T00:30:23.248Z,15.70
2023-01-18T00:33:25.732Z,17.67
2023-01-18T00:36:27.652Z,18.83
2023-01-18T00:39:32.332Z,14.38
2023-01-18T00:42:52.811Z,15.57
2023-01-18T00:45:54.877Z,13.77
2023-01-18T00:48:59.106Z,13.60
2023-01-18T00:52:01.467Z,15.27
2023-01-18T00:55:06.876Z,12.00
2023-01-18T00:58:09.121Z,11.05
2023-01-18T01:01:12.547Z,14.57
2023-01-18T01:04:33.026Z,14.90
2023-01-18T01:07:35.153Z,13.95
2023-01-18T01:10:36.962Z,12.82
2023-01-18T01:13:57.857Z,13.98
2023-01-18T01:17:18.268Z,14.27
2023-01-18T01:20:40.572Z,14.10
2023-01-18T01:24:01.182Z,20.95
2023-01-18T01:27:03.277Z,12.75
2023-01-18T01:30:09.222Z,13.65
2023-01-18T01:33:11.857Z,16.02
2023-01-18T01:36:18.222Z,15.98
2023-01-18T01:39:20.370Z,18.58
2023-01-18T01:42:22.520Z,14.15
2023-01-18T01:45:39.279Z,13.07
2023-01-18T01:48:54.367Z,14.85
2023-01-18T01:55:40.989Z,13.60
2023-01-18T02:01:50.269Z,19.88
2023-01-18T02:04:57.908Z,21.05
2023-01-18T02:08:03.574Z,17.77
2023-01-18T02:11:14.970Z,20.63
2023-01-18T02:14:22.499Z,19.88
2023-01-18T02:17:43.334Z,16.83
2023-01-18T02:21:12.112Z,18.45
2023-01-18T02:24:46.306Z,18.70
2023-01-18T02:28:06.478Z,20.65
2023-01-18T02:31:19.850Z,15.45
2023-01-18T02:38:04.205Z,29.70
2023-01-18T02:41:15.767Z,16.60
2023-01-18T02:44:48.125Z,18.88
2023-01-18T02:47:57.725Z,19.38
2023-01-18T02:51:09.909Z,19.63
2023-01-18T02:54:24.243Z,19.73
2023-01-18T02:57:27.186Z,20.08
2023-01-18T03:00:30.133Z,23.75
2023-01-18T03:03:32.715Z,17.52
2023-01-18T03:06:35.609Z,16.30
2023-01-18T03:09:38.638Z,20.25
2023-01-18T03:12:57.437Z,17.80
2023-01-18T03:16:39.871Z,21.98
2023-01-18T03:20:06.622Z,17.75
2023-01-18T03:23:36.338Z,16.48
2023-01-18T03:26:47.145Z,17.25
2023-01-18T03:30:07.584Z,18.42
2023-01-18T03:33:28.742Z,18.25
2023-01-18T03:36:32.788Z,17.95
2023-01-18T03:39:36.639Z,16.45
2023-01-18T03:42:45.083Z,15.07
2023-01-18T03:45:49.851Z,19.42
2023-01-18T03:48:55.186Z,20.60
2023-01-18T03:52:03.266Z,14.43
2023-01-18T03:55:53.852Z,15.73
2023-01-18T03:59:16.975Z,17.45
2023-01-18T04:02:23.284Z,15.55
2023-01-18T04:05:26.031Z,21.30
2023-01-18T04:08:29.023Z,15.70
2023-01-18T04:11:34.480Z,17.67
2023-01-18T04:14:36.627Z,17.13
2023-01-18T04:17:39.944Z,16.65
2023-01-18T04:20:42.201Z,17.83
2023-01-18T04:23:44.310Z,21.38
2023-01-18T04:26:46.315Z,20.52
2023-01-18T04:29:55.202Z,19.40
2023-01-18T04:32:57.527Z,13.45
2023-01-18T04:35:59.979Z,16.75
2023-01-18T04:39:02.117Z,13.03
2023-01-18T04:42:04.479Z,19.58
2023-01-18T04:49:06.801Z,13.65
2023-01-18T04:52:14.398Z,19.60
2023-01-18T04:55:16.690Z,17.77
2023-01-18T04:58:21.834Z,19.30
2023-01-18T05:01:24.292Z,16.77
2023-01-18T05:04:26.652Z,13.13
2023-01-18T05:07:30.868Z,21.60
2023-01-18T05:10:35.410Z,18.95
2023-01-18T05:13:38.402Z,14.10
2023-01-18T05:16:40.757Z,18.83
2023-01-18T05:19:49.216Z,16.52
2023-01-18T05:22:55.049Z,14.65
2023-01-18T05:26:17.051Z,14.98
2023-01-18T05:33:16.149Z,14.35
2023-01-18T05:41:35.039Z,18.80
2023-01-18T05:45:51.040Z,14.50
2023-01-18T05:48:59.472Z,16.75
2023-01-18T05:56:54.668Z,19.35
2023-01-18T05:59:57.067Z,15.07
2023-01-18T06:03:42.036Z,19.63
2023-01-18T06:07:28.634Z,14.90
2023-01-18T06:10:51.509Z,25.05
2023-01-18T06:19:40.707Z,17.80
2023-01-18T06:23:50.847Z,16.85
2023-01-18T07:13:25.937Z,17.38
2023-01-18T07:20:55.961Z,14.70
2023-01-18T07:24:06.524Z,15.93
2023-01-18T07:27:35.285Z,17.48
2023-01-18T07:30:56.550Z,15.68
2023-01-18T07:34:35.529Z,18.30
2023-01-18T07:41:53.844Z,20.75
2023-01-18T07:45:13.231Z,18.70
2023-01-18T07:52:19.726Z,19.73
2023-01-18T07:56:07.066Z,17.45
2023-01-18T07:59:33.691Z,17.23
2023-01-18T08:41:46.688Z,16.20
2023-01-18T08:44:50.971Z,19.50
2023-01-18T08:48:04.912Z,17.90
2023-01-18T08:51:06.872Z,20.02
2023-01-18T08:54:58.460Z,25.90
2023-01-18T08:58:04.822Z,18.83
2023-01-18T09:01:28.771Z,19.63
2023-01-18T09:04:50.049Z,18.58
2023-01-18T09:08:03.140Z,24.05
2023-01-18T09:11:09.096Z,17.58
2023-01-18T09:14:32.589Z,20.75
2023-01-18T09:17:45.161Z,15.95
2023-01-18T09:21:21.095Z,16.53
2023-01-18T09:24:25.122Z,17.85
2023-01-18T09:27:35.002Z,23.73
2023-01-18T09:34:31.859Z,21.73
2023-01-18T09:42:24.331Z,21.48
2023-01-18T09:48:16.723Z,21.17
2023-01-18T10:03:51.919Z,23.52
2023-01-18T10:11:36.690Z,15.65
2023-01-18T11:27:18.443Z,16.48
2023-01-18T11:30:59.140Z,16.10
2023-01-18T11:35:20.372Z,18.13
2023-01-18T12:19:43.514Z,16.98
2023-01-18T12:27:20.755Z,15.85
2023-01-18T13:25:40.618Z,9.90
2023-01-18T14:34:16.681Z,5.47
2023-01-18T14:47:56.802Z,7.13
2023-01-18T15:01:27.339Z,9.25
2023-01-18T15:04:55.058Z,7.03
2023-01-18T15:08:24.332Z,5.18
2023-01-18T15:16:01.353Z,6.25
2023-01-18T15:19:04.369Z,7.75
2023-01-18T18:32:36.937Z,9.70
2023-01-18T18:37:02.952Z,11.68
2023-01-18T18:48:26.176Z,9.32
2023-01-18T19:05:42.948Z,11.60
2023-01-18T19:09:01.987Z,10.73
2023-01-18T19:16:59.698Z,9.82
2023-01-18T19:35:40.675Z,14.05
2023-01-18T19:39:50.248Z,9.20
2023-01-18T19:50:51.228Z,12.18
2023-01-18T21:36:23.177Z,13.82
2023-01-18T21:48:56.633Z,10.68
2023-01-18T21:52:25.253Z,8.93
2023-01-18T21:55:31.871Z,10.95
2023-01-18T21:58:52.260Z,12.73
2023-01-18T22:02:19.619Z,9.30
2023-01-18T22:10:02.643Z,14.70
2023-01-18T22:18:06.676Z,10.50
2023-01-18T22:58:24.208Z,9.13
2023-01-18T23:01:36.269Z,11.98
2023-01-18T23:05:55.077Z,11.65
2023-01-18T23:32:29.252Z,10.30
2023-01-18T23:35:45.432Z,9.70
2023-01-18T23:39:05.915Z,11.13
2023-01-18T23:42:27.061Z,9.05
2023-01-18T23:45:47.746Z,9.48
2023-01-18T23:49:08.310Z,9.98
2023-01-18T23:55:59.145Z,9.55
